Hide A Way Lake, Texas
Current Conditions -  °F | °C
As of 9:53 AM on Sunday 21 Dec 2014 (Local Time) from KTYR Reporting Station
Overcast Overcast  
Wind Chill: 44°   Ceiling: 1200
Heat Index: 47°   Visibility: 8mi
Dew Point: 43°   Wind: 6mph
Humidity: 86%   Direction: 180°S
Pressure: 30.12"   Gusts: NA
Location:  32.5326°N, 95.4249°W
Report Text: KTYR 211553Z 18005KT 8SM OVC012 08/06 A3012 RMK AO2 SLP198 T00830061
Loading
Personal Weather Stations






























Interactive Weather Map New forecast layout! Learn more

10-Day Weather Forecast

Advertisements
Track Severe Weather on mobile